Time;durP1;ratioP1;P1;durP2;ratioP2;P2;SDS_P1;SDS_P2;PMS_P1;PMS_P2;Temp;Humidity;BMP_temperature;BMP_pressure;BME280_temperature;BME280_humidity;BME280_pressure;Samples;Min_cycle;Max_cycle;Signal;HPM_P1;HPM_P2
2021/12/01 00:01:25;;;;;;;;;;;;;;;5.29;74.93;98856.84;4388838;32;33765;-78
2021/12/01 00:03:52;;;;;;;;;;;;;;;5.67;73.41;98855.97;4388759;32;35420;-77
2021/12/01 00:06:20;;;;;;;;;;;;;;;6.03;72.71;98846.56;4392680;32;35084;-78
2021/12/01 00:08:47;;;;;;;;;;;;;;;6.17;71.93;98846.16;4388883;32;34045;-77
2021/12/01 00:11:14;;;;;;;;;;;;;;;6.21;71.85;98847.53;4376766;32;33520;-78
2021/12/01 00:13:42;;;;;;;;;;;;;;;5.85;72.84;98851.72;4389015;32;35459;-78
2021/12/01 00:16:09;;;;;;;;;;;;;;;5.69;73.20;98859.28;4388762;32;34045;-78
2021/12/01 00:18:37;;;;;;;;;;;;;;;5.67;73.64;98855.13;4389678;32;33261;-78
2021/12/01 00:21:04;;;;;;;;;;;;;;;5.54;73.99;98852.75;4388720;32;34885;-78
2021/12/01 00:23:31;;;;;;;;;;;;;;;5.25;74.42;98858.06;4388560;32;35741;-78
2021/12/01 00:25:59;;;;;;;;;;;;;;;5.22;75.17;98867.09;4388427;32;35213;-77
2021/12/01 00:28:26;;;;;;;;;;;;;;;5.22;74.95;98869.72;4376155;32;33171;-78
2021/12/01 00:30:54;;;;;;;;;;;;;;;5.52;74.24;98867.84;4376294;32;33856;-78
2021/12/01 00:33:22;;;;;;;;;;;;;;;5.53;73.81;98869.56;4355767;32;798584;-77
2021/12/01 00:35:52;;;;;;;;;;;;;;;5.75;72.82;98871.09;4376316;32;33900;-77
2021/12/01 00:38:20;;;;;;;;;;;;;;;5.89;71.25;98870.75;4376268;32;33258;-78
2021/12/01 00:40:50;;;;;;;;;;;;;;;5.97;70.73;98874.34;4394485;32;34113;-78
2021/12/01 00:43:18;;;;;;;;;;;;;;;5.70;71.00;98878.59;4391422;32;35163;-77
2021/12/01 00:45:50;;;;;;;;;;;;;;;5.76;71.92;98880.69;4382208;32;34598;-78
2021/12/01 00:48:18;;;;;;;;;;;;;;;6.02;70.47;98889.78;4386625;32;30677;-78
2021/12/01 00:50:45;;;;;;;;;;;;;;;6.26;69.57;98879.66;4403459;32;33417;-77
2021/12/01 00:53:13;;;;;;;;;;;;;;;6.03;69.72;98876.47;4403979;32;35776;-77
2021/12/01 00:55:43;;;;;;;;;;;;;;;6.02;69.11;98868.66;4390928;32;33966;-78
2021/12/01 00:58:11;;;;;;;;;;;;;;;6.20;68.41;98874.91;4390886;32;31671;-78
2021/12/01 01:00:39;;;;;;;;;;;;;;;6.16;68.24;98869.06;4390466;32;33219;-78
2021/12/01 01:03:08;;;;;;;;;;;;;;;5.86;68.94;98871.03;4391055;32;35880;-78
2021/12/01 01:05:36;;;;;;;;;;;;;;;6.20;68.52;98885.47;4402876;32;34473;-78
2021/12/01 01:08:04;;;;;;;;;;;;;;;6.23;68.41;98879.94;4403168;32;34241;-78
2021/12/01 01:18:40;;;;;;;;;;;;;;;5.96;68.82;98891.16;4390964;32;33497;-78
2021/12/01 01:21:08;;;;;;;;;;;;;;;6.23;68.39;98882.59;4390404;32;34826;-78
2021/12/01 01:23:36;;;;;;;;;;;;;;;6.14;68.41;98883.41;4389912;32;33675;-78
2021/12/01 01:26:04;;;;;;;;;;;;;;;6.26;67.77;98877.00;4390278;32;33092;-78
2021/12/01 01:28:32;;;;;;;;;;;;;;;6.00;68.89;98891.72;4391237;32;33037;-78
2021/12/01 01:30:59;;;;;;;;;;;;;;;6.20;68.36;98875.78;4403178;32;34875;-77
2021/12/01 01:33:27;;;;;;;;;;;;;;;6.16;68.11;98884.91;4403314;32;34919;-78
2021/12/01 01:35:54;;;;;;;;;;;;;;;6.09;68.67;98894.41;4402857;32;34178;-77
2021/12/01 01:38:22;;;;;;;;;;;;;;;6.06;68.33;98885.91;4404301;32;34120;-78
2021/12/01 01:40:49;;;;;;;;;;;;;;;6.12;68.47;98880.06;4384866;32;33526;-77
2021/12/01 01:43:17;;;;;;;;;;;;;;;6.18;68.47;98883.00;4406936;32;35754;-78
2021/12/01 01:45:45;;;;;;;;;;;;;;;6.17;67.98;98896.34;4382813;32;35163;-78
2021/12/01 01:48:13;;;;;;;;;;;;;;;6.05;68.21;98900.09;4392179;32;31777;-78
2021/12/01 01:50:42;;;;;;;;;;;;;;;5.99;68.60;98885.63;4392675;32;32018;-78
2021/12/01 01:53:13;;;;;;;;;;;;;;;6.00;68.82;98886.44;4405159;32;34690;-78
2021/12/01 01:55:43;;;;;;;;;;;;;;;6.26;67.96;98883.13;4392766;32;33109;-78
2021/12/01 01:58:10;;;;;;;;;;;;;;;5.92;68.85;98900.34;4405223;32;32725;-77
2021/12/01 02:00:45;;;;;;;;;;;;;;;6.39;67.61;98896.91;4404514;32;34649;-78
2021/12/01 02:03:13;;;;;;;;;;;;;;;5.99;68.70;98906.75;4392539;32;35042;-77
2021/12/01 02:05:41;;;;;;;;;;;;;;;5.90;68.98;98915.50;4404827;32;34206;-77
2021/12/01 02:08:16;;;;;;;;;;;;;;;6.06;68.40;98913.13;4392313;32;31624;-77
2021/12/01 02:10:44;;;;;;;;;;;;;;;6.07;68.54;98911.34;4404416;32;34760;-77
2021/12/01 02:13:11;;;;;;;;;;;;;;;6.40;67.28;98901.19;4392280;32;34599;-77
2021/12/01 02:15:39;;;;;;;;;;;;;;;6.12;67.96;98911.75;4379879;32;34452;-78
2021/12/01 02:18:06;;;;;;;;;;;;;;;6.20;67.42;98911.87;4405461;32;34140;-77
2021/12/01 02:20:33;;;;;;;;;;;;;;;6.23;68.09;98915.09;4404795;32;34162;-78
2021/12/01 02:23:01;;;;;;;;;;;;;;;6.19;67.78;98921.63;4380281;32;33726;-77
2021/12/01 02:25:28;;;;;;;;;;;;;;;6.31;67.38;98924.97;4405134;32;35105;-77
2021/12/01 02:27:55;;;;;;;;;;;;;;;6.22;67.72;98923.16;4405458;32;33954;-77
2021/12/01 02:30:23;;;;;;;;;;;;;;;6.41;66.86;98909.94;4392463;32;32670;-77
2021/12/01 02:32:51;;;;;;;;;;;;;;;6.09;67.50;98917.31;4394283;32;34807;-77
2021/12/01 02:35:18;;;;;;;;;;;;;;;6.14;67.52;98915.09;4404896;32;33845;-78
2021/12/01 02:37:46;;;;;;;;;;;;;;;6.34;67.61;98914.13;4404666;32;33617;-77
2021/12/01 02:40:13;;;;;;;;;;;;;;;6.23;67.96;98907.16;4391943;32;33056;-77
2021/12/01 02:42:40;;;;;;;;;;;;;;;6.36;67.18;98913.00;4404828;32;34566;-78
2021/12/01 02:45:08;;;;;;;;;;;;;;;6.41;67.53;98917.88;4406326;32;34060;-77
2021/12/01 02:47:35;;;;;;;;;;;;;;;6.33;67.34;98923.03;4405389;32;34052;-77
2021/12/01 02:50:02;;;;;;;;;;;;;;;6.45;66.89;98927.19;4404153;32;34492;-77
2021/12/01 02:52:34;;;;;;;;;;;;;;;6.40;67.10;98930.25;4392438;32;35775;-77
2021/12/01 02:55:05;;;;;;;;;;;;;;;6.67;66.20;98925.09;4391933;32;32832;-77
2021/12/01 02:57:59;;;;;;;;;;;;;;;6.57;66.34;98918.16;4405041;32;32740;-77
2021/12/01 03:00:27;;;;;;;;;;;;;;;6.45;66.48;98921.91;4413155;32;33764;-77
2021/12/01 03:02:56;;;;;;;;;;;;;;;6.26;67.02;98920.09;4392154;32;33527;-78
2021/12/01 03:05:24;;;;;;;;;;;;;;;6.37;67.17;98913.84;4404761;32;35153;-77
2021/12/01 03:07:51;;;;;;;;;;;;;;;6.31;67.54;98917.03;4404667;32;33008;-77
2021/12/01 03:10:19;;;;;;;;;;;;;;;6.31;66.76;98911.75;4367472;32;32510;-77
2021/12/01 03:12:46;;;;;;;;;;;;;;;6.37;66.51;98906.78;4403876;32;35269;-78
2021/12/01 03:15:16;;;;;;;;;;;;;;;6.55;65.83;98918.31;4391845;32;35256;-78
2021/12/01 03:17:44;;;;;;;;;;;;;;;6.58;65.84;98910.09;4395319;32;31183;-77
2021/12/01 03:20:14;;;;;;;;;;;;;;;6.48;65.65;98911.06;4394199;32;34317;-78
2021/12/01 03:22:42;;;;;;;;;;;;;;;6.52;65.47;98915.91;4390611;32;35002;-78
2021/12/01 03:25:10;;;;;;;;;;;;;;;6.47;65.54;98926.09;4391689;32;36028;-77
2021/12/01 03:27:38;;;;;;;;;;;;;;;6.21;66.80;98922.31;4379502;32;32376;-77
2021/12/01 03:30:06;;;;;;;;;;;;;;;6.26;66.17;98925.38;4378652;32;34690;-78
2021/12/01 03:32:33;;;;;;;;;;;;;;;6.43;65.82;98922.03;4404218;32;35020;-78
2021/12/01 03:35:02;;;;;;;;;;;;;;;6.63;64.91;98925.53;4391378;32;33322;-78
2021/12/01 03:37:30;;;;;;;;;;;;;;;6.55;64.90;98931.50;4391845;32;33140;-77
2021/12/01 03:39:58;;;;;;;;;;;;;;;6.70;64.44;98926.63;4391238;32;32776;-78
2021/12/01 03:42:26;;;;;;;;;;;;;;;6.42;65.05;98946.78;4404067;32;36008;-77
2021/12/01 03:44:55;;;;;;;;;;;;;;;6.60;65.21;98933.75;4404243;32;34388;-78
2021/12/01 03:47:23;;;;;;;;;;;;;;;6.68;64.54;98939.97;4391538;32;32303;-78
2021/12/01 03:49:50;;;;;;;;;;;;;;;6.62;64.67;98940.53;4404228;32;34808;-77
2021/12/01 03:52:18;;;;;;;;;;;;;;;6.59;64.74;98947.91;4391966;32;35098;-78
2021/12/01 03:54:46;;;;;;;;;;;;;;;6.51;64.80;98950.44;4391337;32;33669;-77
2021/12/01 03:57:13;;;;;;;;;;;;;;;6.59;64.65;98942.63;4404097;32;33399;-78
2021/12/01 03:59:41;;;;;;;;;;;;;;;6.57;64.54;98944.56;4403103;32;34212;-77
2021/12/01 04:02:08;;;;;;;;;;;;;;;6.73;64.51;98936.91;4378739;32;34524;-78
2021/12/01 04:04:37;;;;;;;;;;;;;;;6.69;63.82;98939.00;4379268;32;34586;-77
2021/12/01 04:07:04;;;;;;;;;;;;;;;6.92;64.32;98929.75;4391462;32;33843;-77
2021/12/01 04:09:32;;;;;;;;;;;;;;;6.92;63.53;98934.25;4403787;32;34654;-78
2021/12/01 04:12:00;;;;;;;;;;;;;;;6.82;63.93;98934.25;4391774;32;35320;-77
2021/12/01 04:14:27;;;;;;;;;;;;;;;6.84;64.02;98939.41;4403694;32;34217;-77
2021/12/01 04:16:54;;;;;;;;;;;;;;;6.75;64.10;98950.81;4404117;32;33998;-78
2021/12/01 04:19:22;;;;;;;;;;;;;;;6.66;64.16;98946.38;4403784;32;34048;-77
2021/12/01 04:21:49;;;;;;;;;;;;;;;6.82;63.59;98952.75;4391285;32;35691;-77
2021/12/01 04:24:16;;;;;;;;;;;;;;;6.70;64.41;98950.41;4404146;32;34179;-77
2021/12/01 04:26:44;;;;;;;;;;;;;;;6.74;64.37;98954.44;4378978;32;34168;-77
2021/12/01 04:29:11;;;;;;;;;;;;;;;6.64;64.70;98966.81;4404028;32;34028;-77
2021/12/01 04:31:39;;;;;;;;;;;;;;;6.54;65.37;98972.09;4424403;32;36051;-77
2021/12/01 04:34:07;;;;;;;;;;;;;;;7.02;63.68;98970.28;4407659;32;32968;-78
2021/12/01 04:36:37;;;;;;;;;;;;;;;6.84;64.07;98960.53;4420300;32;33343;-77
2021/12/01 04:39:06;;;;;;;;;;;;;;;7.15;63.40;98962.84;4424074;32;34599;-77
2021/12/01 04:41:40;;;;;;;;;;;;;;;6.92;63.98;98972.06;4426317;32;35238;-77
2021/12/01 04:44:14;;;;;;;;;;;;;;;6.66;64.93;98973.66;4407616;32;34822;-77
2021/12/01 04:46:46;;;;;;;;;;;;;;;6.85;64.17;98981.56;4407228;32;31710;-77
2021/12/01 04:49:14;;;;;;;;;;;;;;;6.77;64.61;98978.78;4419866;32;34322;-77
2021/12/01 04:51:43;;;;;;;;;;;;;;;6.74;64.91;98988.78;4420028;32;35243;-77
2021/12/01 04:54:11;;;;;;;;;;;;;;;6.95;64.20;98995.59;4420993;32;34686;-77
2021/12/01 04:56:38;;;;;;;;;;;;;;;6.91;64.18;99001.31;4432904;32;33699;-77
2021/12/01 04:59:06;;;;;;;;;;;;;;;6.99;64.05;99028.72;4432483;32;34103;-77
2021/12/01 05:01:35;;;;;;;;;;;;;;;6.89;64.55;99017.31;4420180;32;35655;-77
2021/12/01 05:04:03;;;;;;;;;;;;;;;6.85;64.61;99023.88;4432606;32;34636;-77
2021/12/01 05:06:30;;;;;;;;;;;;;;;6.79;64.51;99023.59;4432697;32;33328;-77
2021/12/01 05:08:58;;;;;;;;;;;;;;;6.95;64.13;99034.41;4421304;32;34280;-77
2021/12/01 05:11:25;;;;;;;;;;;;;;;6.94;64.31;99038.03;4432764;32;35119;-77
2021/12/01 05:14:11;;;;;;;;;;;;;;;6.99;64.29;99035.81;4422208;32;34741;-77
2021/12/01 05:16:39;;;;;;;;;;;;;;;7.15;63.30;99034.28;4409230;32;33817;-77
2021/12/01 05:19:07;;;;;;;;;;;;;;;7.00;64.26;99059.47;4434132;32;34212;-77
2021/12/01 05:21:35;;;;;;;;;;;;;;;6.85;65.17;99065.31;4422677;32;35307;-77
2021/12/01 05:24:02;;;;;;;;;;;;;;;6.70;65.08;99077.28;4434293;32;34290;-77
2021/12/01 05:26:30;;;;;;;;;;;;;;;6.95;64.53;99085.50;4434056;32;33260;-77
2021/12/01 05:28:57;;;;;;;;;;;;;;;6.65;65.87;99092.69;4431451;32;34691;-78
2021/12/01 05:31:25;;;;;;;;;;;;;;;6.99;65.09;99096.66;4434370;32;35369;-77
2021/12/01 05:33:52;;;;;;;;;;;;;;;6.87;65.66;99089.78;4399244;32;34411;-77
2021/12/01 05:36:20;;;;;;;;;;;;;;;6.85;65.79;99102.31;4432642;32;33254;-77
2021/12/01 05:38:47;;;;;;;;;;;;;;;7.15;64.68;99104.84;4422818;32;34135;-77
2021/12/01 05:41:14;;;;;;;;;;;;;;;7.29;64.39;99105.25;4434076;32;35405;-78
2021/12/01 05:43:44;;;;;;;;;;;;;;;6.74;65.46;99107.75;4422624;32;34212;-77
2021/12/01 05:46:11;;;;;;;;;;;;;;;6.94;65.72;99114.72;4433871;32;34155;-77
2021/12/01 05:48:38;;;;;;;;;;;;;;;6.85;65.85;99118.19;4434190;32;33630;-77
2021/12/01 05:51:06;;;;;;;;;;;;;;;6.94;65.71;99131.44;4433786;32;35392;-77
2021/12/01 05:53:34;;;;;;;;;;;;;;;6.92;65.58;99125.41;4422706;32;34991;-77
2021/12/01 05:56:01;;;;;;;;;;;;;;;6.71;66.35;99126.53;4430077;32;33510;-77
2021/12/01 05:58:29;;;;;;;;;;;;;;;7.06;65.22;99135.59;4434155;32;35503;-77
2021/12/01 06:00:56;;;;;;;;;;;;;;;6.82;65.82;99135.16;4433267;32;35889;-77
2021/12/01 06:03:24;;;;;;;;;;;;;;;7.25;64.91;99134.75;4430567;32;34717;-77
2021/12/01 06:05:51;;;;;;;;;;;;;;;6.64;66.55;99135.97;4419674;32;33984;-77
2021/12/01 06:08:18;;;;;;;;;;;;;;;6.70;66.61;99138.06;4421849;32;34242;-76
2021/12/01 06:10:46;;;;;;;;;;;;;;;6.66;66.70;99132.22;4419948;32;35247;-76
2021/12/01 06:13:14;;;;;;;;;;;;;;;6.68;66.70;99143.47;4395870;32;34336;-77
2021/12/01 06:15:42;;;;;;;;;;;;;;;6.65;66.71;99148.19;4414432;32;33645;-77
2021/12/01 06:18:11;;;;;;;;;;;;;;;6.43;67.41;99156.34;4420434;32;34482;-77
2021/12/01 06:20:38;;;;;;;;;;;;;;;6.60;67.37;99145.16;4432732;32;34864;-77
2021/12/01 06:23:05;;;;;;;;;;;;;;;6.65;67.12;99156.97;4419319;32;33889;-76
2021/12/01 06:25:33;;;;;;;;;;;;;;;6.75;66.65;99160.47;4432822;32;33500;-77
2021/12/01 06:28:00;;;;;;;;;;;;;;;6.90;66.44;99168.84;4432852;32;34205;-77
2021/12/01 06:30:31;;;;;;;;;;;;;;;6.98;66.02;99175.12;4431933;32;35207;-76
2021/12/01 06:32:58;;;;;;;;;;;;;;;7.16;65.65;99170.84;4431599;32;34721;-76
2021/12/01 06:35:25;;;;;;;;;;;;;;;7.25;64.82;99185.03;4406933;32;31717;-76
2021/12/01 06:37:55;;;;;;;;;;;;;;;7.18;65.20;99183.94;4407109;32;33414;-76
2021/12/01 06:40:23;;;;;;;;;;;;;;;7.29;64.53;99183.78;4419939;32;35093;-76
2021/12/01 06:42:50;;;;;;;;;;;;;;;7.40;64.95;99181.00;4420885;32;34411;-76
2021/12/01 06:45:18;;;;;;;;;;;;;;;7.20;65.35;99200.50;4420351;32;33296;-77
2021/12/01 06:47:45;;;;;;;;;;;;;;;7.36;64.46;99195.50;4415811;32;32455;-76
2021/12/01 06:50:13;;;;;;;;;;;;;;;7.20;65.19;99196.06;4418887;32;35967;-76
2021/12/01 06:52:40;;;;;;;;;;;;;;;7.52;64.22;99199.25;4418662;32;34918;-76
2021/12/01 06:55:08;;;;;;;;;;;;;;;7.54;64.30;99202.59;4416466;32;32856;-76
2021/12/01 06:57:36;;;;;;;;;;;;;;;7.61;63.86;99202.88;4414719;32;34834;-76
2021/12/01 07:00:07;;;;;;;;;;;;;;;7.52;64.31;99201.06;4437629;32;35304;-76
2021/12/01 07:02:34;;;;;;;;;;;;;;;7.85;63.40;99200.63;4432037;32;35315;-76
2021/12/01 07:05:02;;;;;;;;;;;;;;;7.64;63.78;99206.06;4426377;32;32508;-76
2021/12/01 07:07:29;;;;;;;;;;;;;;;7.91;62.98;99202.72;4420064;32;33916;-78
2021/12/01 07:09:57;;;;;;;;;;;;;;;8.22;61.93;99194.44;4417758;32;35444;-77
2021/12/01 07:12:24;;;;;;;;;;;;;;;8.35;61.62;99189.66;4432078;32;35253;-77
2021/12/01 07:14:51;;;;;;;;;;;;;;;8.22;61.67;99191.78;4421602;32;32033;-78
2021/12/01 07:17:19;;;;;;;;;;;;;;;8.51;60.94;99172.16;4419870;32;33525;-78
2021/12/01 07:19:48;;;;;;;;;;;;;;;8.80;60.03;99161.41;4433743;32;35814;-77
2021/12/01 07:22:16;;;;;;;;;;;;;;;8.67;60.42;99163.56;4432202;32;34805;-78
2021/12/01 07:24:44;;;;;;;;;;;;;;;8.81;59.98;99166.53;4419877;32;33125;-77
2021/12/01 07:27:14;;;;;;;;;;;;;;;8.47;61.21;99177.87;4420455;32;32330;-78
2021/12/01 07:29:51;;;;;;;;;;;;;;;7.96;62.88;99174.84;4419219;32;35021;-78
2021/12/01 07:32:18;;;;;;;;;;;;;;;8.33;61.99;99181.03;4420224;32;32501;-78
2021/12/01 07:34:46;;;;;;;;;;;;;;;8.19;62.65;99183.31;4419406;32;33245;-77
2021/12/01 07:37:15;;;;;;;;;;;;;;;8.05;62.64;99175.78;4407332;32;34383;-78
2021/12/01 07:39:46;;;;;;;;;;;;;;;8.24;62.34;99175.75;4407218;32;33759;-78
2021/12/01 07:42:17;;;;;;;;;;;;;;;8.40;62.21;99182.09;4421441;32;35090;-77
2021/12/01 07:44:50;;;;;;;;;;;;;;;8.24;62.99;99187.19;4432854;32;33686;-77
2021/12/01 07:47:18;;;;;;;;;;;;;;;8.54;62.16;99184.28;4417604;32;35185;-78
2021/12/01 07:49:45;;;;;;;;;;;;;;;8.42;62.76;99182.81;4418766;32;34636;-75
2021/12/01 07:52:13;;;;;;;;;;;;;;;8.65;62.32;99165.53;4432934;32;34577;-76
2021/12/01 07:54:40;;;;;;;;;;;;;;;8.98;61.59;99159.62;4420296;32;33116;-76
2021/12/01 07:57:08;;;;;;;;;;;;;;;8.89;61.85;99157.88;4433094;32;34555;-76
2021/12/01 07:59:35;;;;;;;;;;;;;;;8.88;61.87;99150.91;4432252;32;35285;-76
2021/12/01 08:02:03;;;;;;;;;;;;;;;9.24;60.88;99141.94;4418276;32;32854;-76
2021/12/01 08:04:31;;;;;;;;;;;;;;;9.18;61.97;99155.84;4407626;32;33265;-76
2021/12/01 08:06:58;;;;;;;;;;;;;;;8.90;63.34;99149.75;4432645;32;34274;-77
2021/12/01 08:09:26;;;;;;;;;;;;;;;8.86;63.20;99151.03;4432491;32;34867;-78
2021/12/01 08:11:57;;;;;;;;;;;;;;;8.77;63.84;99157.22;4420199;32;34235;-78
2021/12/01 08:14:26;;;;;;;;;;;;;;;9.27;62.17;99150.44;4432823;32;33747;-76
2021/12/01 08:16:54;;;;;;;;;;;;;;;9.53;61.45;99161.16;4432119;32;34547;-77
2021/12/01 08:19:25;;;;;;;;;;;;;;;9.59;61.43;99152.56;4432320;32;35715;-76
2021/12/01 08:21:52;;;;;;;;;;;;;;;9.77;61.01;99151.56;4421626;32;35098;-77
2021/12/01 08:24:20;;;;;;;;;;;;;;;9.71;61.40;99151.31;4421401;32;34265;-77
2021/12/01 08:26:47;;;;;;;;;;;;;;;9.84;61.25;99149.13;4420955;32;33523;-78
2021/12/01 08:29:15;;;;;;;;;;;;;;;10.02;60.83;99147.25;4424100;32;35721;-78
2021/12/01 08:31:43;;;;;;;;;;;;;;;10.04;60.63;99142.63;4432786;32;35118;-78
2021/12/01 08:34:10;;;;;;;;;;;;;;;9.96;60.80;99147.87;4431112;32;33792;-78
2021/12/01 08:36:39;;;;;;;;;;;;;;;9.92;61.18;99143.88;4412167;32;33767;-76
2021/12/01 08:39:06;;;;;;;;;;;;;;;9.95;61.33;99149.69;4411517;32;34969;-77
2021/12/01 08:41:38;;;;;;;;;;;;;;;10.01;61.21;99157.03;4411763;32;35465;-77
2021/12/01 08:44:06;;;;;;;;;;;;;;;9.95;61.95;99157.69;4424670;32;33797;-76
2021/12/01 08:46:34;;;;;;;;;;;;;;;9.87;62.53;99156.75;4412553;32;34157;-77
2021/12/01 08:49:01;;;;;;;;;;;;;;;9.63;63.63;99149.44;4411023;32;34728;-77
2021/12/01 08:51:30;;;;;;;;;;;;;;;9.11;65.69;99154.78;4411479;32;34258;-76
2021/12/01 08:53:57;;;;;;;;;;;;;;;8.89;66.52;99149.91;4413248;32;33008;-76
2021/12/01 08:56:25;;;;;;;;;;;;;;;8.75;67.21;99153.03;4425037;32;34148;-76
2021/12/01 08:58:52;;;;;;;;;;;;;;;9.02;66.40;99143.25;4414240;32;36121;-76
2021/12/01 09:01:20;;;;;;;;;;;;;;;8.87;67.13;99146.53;4424808;32;34809;-76
2021/12/01 09:03:48;;;;;;;;;;;;;;;9.06;66.76;99149.91;4411453;32;32947;-76
2021/12/01 09:06:16;;;;;;;;;;;;;;;9.17;66.63;99140.91;4398688;32;33571;-77
2021/12/01 09:08:43;;;;;;;;;;;;;;;8.90;67.39;99149.75;4411310;32;33455;-77
2021/12/01 09:11:10;;;;;;;;;;;;;;;8.80;67.72;99138.34;4410826;32;34321;-76
2021/12/01 09:13:38;;;;;;;;;;;;;;;9.23;66.79;99124.37;4412247;32;33143;-77
2021/12/01 09:16:15;;;;;;;;;;;;;;;9.46;65.93;99122.94;4423419;32;33836;-76
2021/12/01 09:18:43;;;;;;;;;;;;;;;9.74;64.94;99117.31;4412111;32;35352;-76
2021/12/01 09:21:10;;;;;;;;;;;;;;;9.77;65.22;99108.22;4423510;32;34291;-76
2021/12/01 09:23:37;;;;;;;;;;;;;;;10.14;64.13;99109.66;4411352;32;33362;-76
2021/12/01 09:26:05;;;;;;;;;;;;;;;10.11;64.48;99109.13;4422519;32;34365;-80
2021/12/01 09:28:32;;;;;;;;;;;;;;;9.97;65.03;99105.22;4410811;32;35865;-79
2021/12/01 09:30:59;;;;;;;;;;;;;;;9.89;65.01;99117.59;4410707;32;35594;-81
2021/12/01 09:33:30;;;;;;;;;;;;;;;9.44;66.28;99127.56;4412412;32;33244;-81
2021/12/01 09:36:00;;;;;;;;;;;;;;;9.33;66.18;99123.31;4412411;32;34048;-79
2021/12/01 09:38:27;;;;;;;;;;;;;;;9.50;66.89;99127.78;4397695;32;36277;-79
2021/12/01 09:40:57;;;;;;;;;;;;;;;9.70;66.43;99118.63;4422933;32;34622;-80
2021/12/01 09:43:29;;;;;;;;;;;;;;;9.72;65.10;99110.53;4397792;32;33414;-79
2021/12/01 09:45:58;;;;;;;;;;;;;;;9.38;66.76;99102.44;4410334;32;34339;-80
2021/12/01 09:48:29;;;;;;;;;;;;;;;9.61;64.79;99092.16;4410080;32;35691;-80
2021/12/01 09:51:12;;;;;;;;;;;;;;;9.13;64.72;99091.78;4411647;32;34028;-78
2021/12/01 09:53:39;;;;;;;;;;;;;;;9.75;62.96;99083.62;4411937;32;32909;-80
2021/12/01 09:56:07;;;;;;;;;;;;;;;9.64;63.50;99076.75;4410265;32;32234;-80
2021/12/01 09:58:35;;;;;;;;;;;;;;;9.46;65.12;99083.91;4410578;32;34420;-80
2021/12/01 10:01:04;;;;;;;;;;;;;;;9.69;64.23;99085.09;4414099;32;35092;-80
2021/12/01 10:03:32;;;;;;;;;;;;;;;9.73;63.38;99097.06;4412710;32;33779;-80
2021/12/01 10:06:02;;;;;;;;;;;;;;;9.76;63.23;99080.00;4411368;32;32342;-81
2021/12/01 10:08:34;;;;;;;;;;;;;;;9.97;62.21;99089.25;4411750;32;34570;-81
2021/12/01 10:11:04;;;;;;;;;;;;;;;9.42;62.65;99079.06;4424085;32;34387;-80
2021/12/01 10:13:32;;;;;;;;;;;;;;;9.44;63.40;99085.09;4411837;32;33350;-79
2021/12/01 10:16:02;;;;;;;;;;;;;;;9.90;61.77;99074.94;4412934;32;34948;-81
2021/12/01 10:18:34;;;;;;;;;;;;;;;9.62;60.72;99077.91;4413287;32;34974;-82
2021/12/01 10:21:05;;;;;;;;;;;;;;;9.62;61.30;99075.25;4413123;32;34166;-82
2021/12/01 10:23:34;;;;;;;;;;;;;;;9.73;59.84;99086.44;4413823;32;34143;-82
2021/12/01 10:26:15;;;;;;;;;;;;;;;9.78;59.42;99081.50;4398898;32;34079;-82
2021/12/01 10:28:47;;;;;;;;;;;;;;;10.07;58.24;99083.84;4412322;32;34866;-81
2021/12/01 10:31:30;;;;;;;;;;;;;;;10.34;58.35;99091.63;4412318;32;33878;-82
2021/12/01 10:34:12;;;;;;;;;;;;;;;9.85;59.68;99095.00;4420378;32;35394;-82
2021/12/01 10:36:40;;;;;;;;;;;;;;;9.89;59.15;99088.34;4421918;32;34329;-82
2021/12/01 10:39:08;;;;;;;;;;;;;;;9.80;59.24;99082.19;4399081;32;36087;-81
2021/12/01 10:41:40;;;;;;;;;;;;;;;9.78;57.96;99089.47;4412239;32;33970;-81
2021/12/01 10:44:12;;;;;;;;;;;;;;;9.57;57.99;99077.53;4412672;32;33615;-82
2021/12/01 10:46:46;;;;;;;;;;;;;;;9.73;58.75;99070.50;4424775;32;33678;-83
2021/12/01 10:49:18;;;;;;;;;;;;;;;9.35;58.03;99065.59;4412384;32;34945;-82
2021/12/01 10:51:45;;;;;;;;;;;;;;;8.96;58.84;99066.06;4410585;32;34512;-80
2021/12/01 10:54:14;;;;;;;;;;;;;;;9.03;58.90;99069.78;4411504;32;32597;-82
2021/12/01 10:56:41;;;;;;;;;;;;;;;9.06;58.48;99064.16;4411686;32;34513;-83
2021/12/01 10:59:09;;;;;;;;;;;;;;;9.26;58.50;99045.28;4413320;32;34885;-82
2021/12/01 11:01:37;;;;;;;;;;;;;;;9.21;57.83;99047.56;4412751;32;34926;-83
2021/12/01 11:04:05;;;;;;;;;;;;;;;8.89;58.55;99043.81;4445071;26;33232;-80
2021/12/01 11:06:37;;;;;;;;;;;;;;;9.35;57.81;99054.16;4436089;32;32965;-81
2021/12/01 11:09:14;;;;;;;;;;;;;;;9.47;58.69;99048.41;4426775;32;35159;-81
2021/12/01 11:11:50;;;;;;;;;;;;;;;9.31;58.16;99043.00;4410657;32;34173;-81
2021/12/01 11:14:41;;;;;;;;;;;;;;;9.43;57.81;99044.41;4433757;32;34239;-82
2021/12/01 11:17:14;;;;;;;;;;;;;;;8.91;59.35;99033.87;4403173;32;32532;-82
2021/12/01 11:20:31;;;;;;;;;;;;;;;9.07;59.96;99024.22;4429530;32;34146;-82
2021/12/01 11:23:19;;;;;;;;;;;;;;;9.15;58.69;99034.06;4445679;32;34799;-82
2021/12/01 11:26:20;;;;;;;;;;;;;;;8.60;59.97;99021.97;4439958;32;34590;-81
2021/12/01 11:29:08;;;;;;;;;;;;;;;8.94;58.75;99013.19;4441550;32;32356;-81
2021/12/01 11:31:44;;;;;;;;;;;;;;;9.73;57.08;99006.75;4434357;32;35057;-81
2021/12/01 11:34:14;;;;;;;;;;;;;;;10.00;56.64;98998.59;4439415;32;32661;-82
2021/12/01 11:36:44;;;;;;;;;;;;;;;10.13;55.71;98992.88;4437113;32;33370;-81
2021/12/01 11:39:32;;;;;;;;;;;;;;;10.39;54.29;98969.69;4429861;32;33140;-82
2021/12/01 11:42:09;;;;;;;;;;;;;;;10.74;54.77;98959.59;4438558;32;35442;-82
2021/12/01 11:44:41;;;;;;;;;;;;;;;10.87;53.56;98969.75;4434098;32;33794;-82
2021/12/01 11:47:15;;;;;;;;;;;;;;;10.93;53.73;98961.09;4437850;32;33368;-82
2021/12/01 11:50:03;;;;;;;;;;;;;;;10.97;52.60;98955.28;4430577;32;35314;-82
2021/12/01 11:53:15;;;;;;;;;;;;;;;10.99;52.71;98949.78;4422535;32;36121;-82
2021/12/01 11:55:59;;;;;;;;;;;;;;;11.41;51.62;98933.41;4435499;32;33708;-82
2021/12/01 11:58:48;;;;;;;;;;;;;;;11.30;51.68;98940.13;4423502;32;32706;-82
2021/12/01 12:01:36;;;;;;;;;;;;;;;11.60;50.33;98929.56;4452028;32;34296;-82
2021/12/01 12:04:29;;;;;;;;;;;;;;;11.53;51.00;98917.91;4447914;32;35735;-82
2021/12/01 12:07:21;;;;;;;;;;;;;;;12.05;49.71;98916.38;4452545;32;34012;-82
2021/12/01 12:10:19;;;;;;;;;;;;;;;12.26;49.94;98905.91;4436050;32;33045;-82
2021/12/01 12:12:56;;;;;;;;;;;;;;;12.24;48.72;98905.25;4448499;32;34834;-83
2021/12/01 12:15:37;;;;;;;;;;;;;;;12.32;49.57;98897.22;4438550;32;35915;-83
2021/12/01 12:18:07;;;;;;;;;;;;;;;12.34;49.35;98903.19;4422546;32;33423;-83
2021/12/01 12:21:11;;;;;;;;;;;;;;;12.27;49.69;98900.41;4450226;32;33436;-84
2021/12/01 12:24:02;;;;;;;;;;;;;;;11.95;49.57;98900.62;4437185;32;32521;-84
2021/12/01 12:26:36;;;;;;;;;;;;;;;12.06;50.44;98900.22;4428843;32;36118;-83
2021/12/01 12:29:07;;;;;;;;;;;;;;;12.38;49.41;98891.19;4435919;32;33005;-84
2021/12/01 12:31:37;;;;;;;;;;;;;;;12.27;49.36;98892.41;4436295;32;32794;-81
2021/12/01 12:34:22;;;;;;;;;;;;;;;12.46;49.42;98902.63;4436032;32;34691;-81
2021/12/01 12:36:55;;;;;;;;;;;;;;;11.98;49.21;98902.91;4450294;32;34709;-81
2021/12/01 12:39:25;;;;;;;;;;;;;;;11.92;50.53;98892.94;4449270;32;33832;-81
2021/12/01 12:42:00;;;;;;;;;;;;;;;11.81;49.85;98882.69;4425085;32;31997;-81
2021/12/01 12:44:37;;;;;;;;;;;;;;;12.13;50.58;98876.34;4433797;32;34830;-81
2021/12/01 12:47:38;;;;;;;;;;;;;;;12.64;48.37;98876.47;4449868;32;35740;-81
2021/12/01 12:50:26;;;;;;;;;;;;;;;12.26;49.09;98866.75;4434770;32;35256;-80
2021/12/01 12:53:05;;;;;;;;;;;;;;;12.65;48.54;98866.63;4428402;32;34693;-81
2021/12/01 12:55:36;;;;;;;;;;;;;;;12.17;48.93;98859.81;4413173;32;34206;-81
2021/12/01 12:58:15;;;;;;;;;;;;;;;11.80;49.03;98859.69;4435627;32;35959;-80
2021/12/01 13:00:46;;;;;;;;;;;;;;;11.60;49.94;98855.81;4432586;32;33690;-81
2021/12/01 13:03:24;;;;;;;;;;;;;;;11.26;50.52;98854.41;4416128;32;32285;-80
2021/12/01 13:06:21;;;;;;;;;;;;;;;11.22;51.20;98855.75;4437335;32;32631;-81
2021/12/01 13:08:51;;;;;;;;;;;;;;;11.49;50.53;98847.31;4435212;32;35350;-80
2021/12/01 13:11:20;;;;;;;;;;;;;;;12.01;49.57;98853.75;4430744;32;33281;-81
2021/12/01 13:14:08;;;;;;;;;;;;;;;12.17;48.92;98849.16;4430409;32;33448;-80
2021/12/01 13:17:01;;;;;;;;;;;;;;;12.13;47.76;98837.19;4451532;32;34421;-79
2021/12/01 13:19:34;;;;;;;;;;;;;;;12.09;48.46;98846.53;4427441;32;34239;-79
2021/12/01 13:22:10;;;;;;;;;;;;;;;12.09;48.70;98841.19;4426441;32;35229;-80